sensor_id;sensor_type;location;lat;lon;timestamp;temperature;humidity
1461;DHT22;724;49.910;12.530;2022-07-01T00:00:07;18.40;1.00
1461;DHT22;724;49.910;12.530;2022-07-01T00:02:34;18.30;1.00
1461;DHT22;724;49.910;12.530;2022-07-01T00:05:03;18.30;1.00
1461;DHT22;724;49.910;12.530;2022-07-01T00:07:30;18.30;1.00
1461;DHT22;724;49.910;12.530;2022-07-01T00:09:56;18.30;52.50
1461;DHT22;724;49.910;12.530;2022-07-01T00:12:23;18.20;99.90
1461;DHT22;724;49.910;12.530;2022-07-01T00:14:50;18.20;99.90
1461;DHT22;724;49.910;12.530;2022-07-01T00:17:16;18.20;99.90
1461;DHT22;724;49.910;12.530;2022-07-01T00:19:43;18.20;99.90
1461;DHT22;724;49.910;12.530;2022-07-01T00:22:11;18.10;99.90
1461;DHT22;724;49.910;12.530;2022-07-01T00:24:38;18.00;99.90
1461;DHT22;724;49.910;12.530;2022-07-01T00:27:05;18.10;99.90
1461;DHT22;724;49.910;12.530;2022-07-01T00:29:32;18.10;99.90
1461;DHT22;724;49.910;12.530;2022-07-01T00:31:59;18.20;99.90
1461;DHT22;724;49.910;12.530;2022-07-01T00:34:26;18.20;99.90
1461;DHT22;724;49.910;12.530;2022-07-01T00:36:53;18.30;99.90
1461;DHT22;724;49.910;12.530;2022-07-01T00:39:21;18.20;99.90
1461;DHT22;724;49.910;12.530;2022-07-01T00:41:47;18.10;1.00
1461;DHT22;724;49.910;12.530;2022-07-01T00:44:17;18.00;11.50
1461;DHT22;724;49.910;12.530;2022-07-01T00:46:44;18.10;1.00
1461;DHT22;724;49.910;12.530;2022-07-01T00:49:11;18.10;1.00
1461;DHT22;724;49.910;12.530;2022-07-01T00:51:38;18.10;46.50
1461;DHT22;724;49.910;12.530;2022-07-01T00:54:05;18.00;78.70
1461;DHT22;724;49.910;12.530;2022-07-01T00:56:33;18.00;99.90
1461;DHT22;724;49.910;12.530;2022-07-01T00:59:00;18.00;99.90
1461;DHT22;724;49.910;12.530;2022-07-01T01:01:27;17.90;99.90
1461;DHT22;724;49.910;12.530;2022-07-01T01:03:54;18.00;99.90
1461;DHT22;724;49.910;12.530;2022-07-01T01:06:20;18.00;99.90
1461;DHT22;724;49.910;12.530;2022-07-01T01:08:47;17.90;99.90
1461;DHT22;724;49.910;12.530;2022-07-01T01:11:15;17.80;99.90
1461;DHT22;724;49.910;12.530;2022-07-01T01:13:43;17.90;99.90
1461;DHT22;724;49.910;12.530;2022-07-01T01:16:16;17.90;99.90
1461;DHT22;724;49.910;12.530;2022-07-01T01:18:44;17.70;99.90
1461;DHT22;724;49.910;12.530;2022-07-01T01:21:12;17.80;99.90
1461;DHT22;724;49.910;12.530;2022-07-01T01:23:39;17.80;99.90
1461;DHT22;724;49.910;12.530;2022-07-01T01:26:18;17.70;99.90
1461;DHT22;724;49.910;12.530;2022-07-01T01:28:45;17.70;1.00
1461;DHT22;724;49.910;12.530;2022-07-01T01:31:12;17.80;1.00
1461;DHT22;724;49.910;12.530;2022-07-01T01:33:38;17.80;1.00
1461;DHT22;724;49.910;12.530;2022-07-01T01:36:05;17.80;1.00
1461;DHT22;724;49.910;12.530;2022-07-01T01:38:34;17.90;1.00
1461;DHT22;724;49.910;12.530;2022-07-01T01:41:01;17.90;1.00
1461;DHT22;724;49.910;12.530;2022-07-01T01:43:28;17.90;1.00
1461;DHT22;724;49.910;12.530;2022-07-01T01:45:55;17.90;1.00
1461;DHT22;724;49.910;12.530;2022-07-01T01:48:22;17.90;1.00
1461;DHT22;724;49.910;12.530;2022-07-01T01:50:48;18.00;1.00
1461;DHT22;724;49.910;12.530;2022-07-01T01:53:15;18.10;1.00
1461;DHT22;724;49.910;12.530;2022-07-01T01:55:44;18.10;1.00
1461;DHT22;724;49.910;12.530;2022-07-01T01:58:10;18.10;1.00
1461;DHT22;724;49.910;12.530;2022-07-01T02:00:37;18.10;1.00
1461;DHT22;724;49.910;12.530;2022-07-01T02:03:04;18.10;1.00
1461;DHT22;724;49.910;12.530;2022-07-01T02:05:31;18.30;1.00
1461;DHT22;724;49.910;12.530;2022-07-01T02:07:59;18.70;1.00
1461;DHT22;724;49.910;12.530;2022-07-01T02:10:26;18.90;99.90
1461;DHT22;724;49.910;12.530;2022-07-01T02:12:54;19.00;99.90
1461;DHT22;724;49.910;12.530;2022-07-01T02:15:21;18.90;99.90
1461;DHT22;724;49.910;12.530;2022-07-01T02:17:47;18.90;28.40
1461;DHT22;724;49.910;12.530;2022-07-01T02:20:14;18.90;1.00
1461;DHT22;724;49.910;12.530;2022-07-01T02:22:42;18.80;1.00
1461;DHT22;724;49.910;12.530;2022-07-01T02:25:09;18.80;1.00
1461;DHT22;724;49.910;12.530;2022-07-01T02:27:35;18.70;1.00
1461;DHT22;724;49.910;12.530;2022-07-01T02:30:06;18.70;1.00
1461;DHT22;724;49.910;12.530;2022-07-01T02:32:33;18.60;1.00
1461;DHT22;724;49.910;12.530;2022-07-01T02:34:59;18.60;1.00
1461;DHT22;724;49.910;12.530;2022-07-01T02:37:26;18.60;1.00
1461;DHT22;724;49.910;12.530;2022-07-01T02:39:53;18.50;1.00
1461;DHT22;724;49.910;12.530;2022-07-01T02:42:20;18.50;1.00
1461;DHT22;724;49.910;12.530;2022-07-01T02:44:51;18.50;1.00
1461;DHT22;724;49.910;12.530;2022-07-01T02:47:19;18.40;1.00
1461;DHT22;724;49.910;12.530;2022-07-01T02:49:46;18.30;1.00
1461;DHT22;724;49.910;12.530;2022-07-01T02:52:13;18.30;1.00
1461;DHT22;724;49.910;12.530;2022-07-01T02:54:41;18.20;1.00
1461;DHT22;724;49.910;12.530;2022-07-01T02:57:08;18.20;1.00
1461;DHT22;724;49.910;12.530;2022-07-01T02:59:35;18.20;1.00
1461;DHT22;724;49.910;12.530;2022-07-01T03:02:02;18.20;1.00
1461;DHT22;724;49.910;12.530;2022-07-01T03:04:30;18.10;1.00
1461;DHT22;724;49.910;12.530;2022-07-01T03:06:57;18.10;1.00
1461;DHT22;724;49.910;12.530;2022-07-01T03:09:24;18.10;1.00
1461;DHT22;724;49.910;12.530;2022-07-01T03:11:50;18.10;1.00
1461;DHT22;724;49.910;12.530;2022-07-01T03:14:17;18.10;1.00
1461;DHT22;724;49.910;12.530;2022-07-01T03:16:44;18.10;1.00
1461;DHT22;724;49.910;12.530;2022-07-01T03:19:12;18.10;1.00
1461;DHT22;724;49.910;12.530;2022-07-01T03:21:40;18.20;1.00
1461;DHT22;724;49.910;12.530;2022-07-01T03:24:07;18.20;1.00
1461;DHT22;724;49.910;12.530;2022-07-01T03:26:34;18.20;1.00
1461;DHT22;724;49.910;12.530;2022-07-01T03:29:01;18.10;1.00
1461;DHT22;724;49.910;12.530;2022-07-01T03:31:27;18.10;1.00
1461;DHT22;724;49.910;12.530;2022-07-01T03:33:54;18.00;1.00
1461;DHT22;724;49.910;12.530;2022-07-01T03:36:21;18.10;1.00
1461;DHT22;724;49.910;12.530;2022-07-01T03:38:49;18.00;1.00
1461;DHT22;724;49.910;12.530;2022-07-01T03:41:15;18.00;1.00
1461;DHT22;724;49.910;12.530;2022-07-01T03:43:42;18.00;1.00
1461;DHT22;724;49.910;12.530;2022-07-01T03:46:09;18.00;1.00
1461;DHT22;724;49.910;12.530;2022-07-01T03:48:38;18.00;1.00
1461;DHT22;724;49.910;12.530;2022-07-01T03:51:04;18.00;1.00
1461;DHT22;724;49.910;12.530;2022-07-01T03:53:32;17.90;1.00
1461;DHT22;724;49.910;12.530;2022-07-01T03:56:17;17.90;1.00
1461;DHT22;724;49.910;12.530;2022-07-01T03:58:44;17.90;1.00
1461;DHT22;724;49.910;12.530;2022-07-01T04:01:11;17.90;1.00
1461;DHT22;724;49.910;12.530;2022-07-01T04:03:38;17.80;1.00
1461;DHT22;724;49.910;12.530;2022-07-01T04:06:05;17.70;1.00
1461;DHT22;724;49.910;12.530;2022-07-01T04:08:32;17.70;1.00
1461;DHT22;724;49.910;12.530;2022-07-01T04:10:58;17.60;1.00
1461;DHT22;724;49.910;12.530;2022-07-01T04:13:27;17.60;1.00
1461;DHT22;724;49.910;12.530;2022-07-01T04:15:54;17.60;1.00
1461;DHT22;724;49.910;12.530;2022-07-01T04:18:21;17.60;1.00
1461;DHT22;724;49.910;12.530;2022-07-01T04:20:47;17.60;1.00
1461;DHT22;724;49.910;12.530;2022-07-01T04:23:28;17.60;1.00
1461;DHT22;724;49.910;12.530;2022-07-01T04:25:55;17.70;1.00
1461;DHT22;724;49.910;12.530;2022-07-01T04:28:22;17.60;1.00
1461;DHT22;724;49.910;12.530;2022-07-01T04:30:51;17.60;1.00
1461;DHT22;724;49.910;12.530;2022-07-01T04:33:17;17.70;1.00
1461;DHT22;724;49.910;12.530;2022-07-01T04:35:44;17.70;1.00
1461;DHT22;724;49.910;12.530;2022-07-01T04:38:11;17.70;1.00
1461;DHT22;724;49.910;12.530;2022-07-01T04:40:38;17.80;1.00
1461;DHT22;724;49.910;12.530;2022-07-01T04:43:07;17.90;1.00
1461;DHT22;724;49.910;12.530;2022-07-01T04:45:33;18.10;1.00
1461;DHT22;724;49.910;12.530;2022-07-01T04:48:01;18.10;1.00
1461;DHT22;724;49.910;12.530;2022-07-01T04:50:29;18.10;1.00
1461;DHT22;724;49.910;12.530;2022-07-01T04:52:56;18.10;1.00
1461;DHT22;724;49.910;12.530;2022-07-01T04:55:23;18.10;1.00
1461;DHT22;724;49.910;12.530;2022-07-01T04:57:49;18.10;1.00
1461;DHT22;724;49.910;12.530;2022-07-01T05:00:16;18.10;1.00
1461;DHT22;724;49.910;12.530;2022-07-01T05:02:43;18.10;1.00
1461;DHT22;724;49.910;12.530;2022-07-01T05:05:11;18.10;1.00
1461;DHT22;724;49.910;12.530;2022-07-01T05:07:38;18.10;1.00
1461;DHT22;724;49.910;12.530;2022-07-01T05:10:05;18.20;1.00
1461;DHT22;724;49.910;12.530;2022-07-01T05:12:32;18.00;1.00
1461;DHT22;724;49.910;12.530;2022-07-01T05:14:58;18.00;1.00
1461;DHT22;724;49.910;12.530;2022-07-01T05:17:25;18.00;1.00
1461;DHT22;724;49.910;12.530;2022-07-01T05:20:13;18.10;1.00
1461;DHT22;724;49.910;12.530;2022-07-01T05:22:57;18.10;1.00
1461;DHT22;724;49.910;12.530;2022-07-01T05:25:24;18.10;1.00
1461;DHT22;724;49.910;12.530;2022-07-01T05:27:50;18.10;1.00
1461;DHT22;724;49.910;12.530;2022-07-01T05:30:17;18.10;1.00
1461;DHT22;724;49.910;12.530;2022-07-01T05:32:44;18.00;1.00
1461;DHT22;724;49.910;12.530;2022-07-01T05:35:12;18.10;1.00
1461;DHT22;724;49.910;12.530;2022-07-01T05:37:39;18.20;1.00
1461;DHT22;724;49.910;12.530;2022-07-01T05:40:07;18.20;1.00
1461;DHT22;724;49.910;12.530;2022-07-01T05:42:34;18.50;1.00
1461;DHT22;724;49.910;12.530;2022-07-01T05:45:01;18.60;1.00
1461;DHT22;724;49.910;12.530;2022-07-01T05:47:28;18.50;1.00
1461;DHT22;724;49.910;12.530;2022-07-01T05:49:54;18.50;1.00
1461;DHT22;724;49.910;12.530;2022-07-01T05:52:22;18.70;1.00
1461;DHT22;724;49.910;12.530;2022-07-01T05:54:49;18.80;1.00
1461;DHT22;724;49.910;12.530;2022-07-01T05:57:16;18.70;1.00
1461;DHT22;724;49.910;12.530;2022-07-01T05:59:43;18.70;1.00
1461;DHT22;724;49.910;12.530;2022-07-01T06:02:09;18.70;1.00
1461;DHT22;724;49.910;12.530;2022-07-01T06:04:36;18.60;1.00
1461;DHT22;724;49.910;12.530;2022-07-01T06:07:03;18.60;1.00
1461;DHT22;724;49.910;12.530;2022-07-01T06:09:31;18.60;1.00
1461;DHT22;724;49.910;12.530;2022-07-01T06:11:58;18.80;1.00
1461;DHT22;724;49.910;12.530;2022-07-01T06:14:25;18.70;1.00
1461;DHT22;724;49.910;12.530;2022-07-01T06:16:51;18.80;1.00
1461;DHT22;724;49.910;12.530;2022-07-01T06:19:18;18.90;1.00
1461;DHT22;724;49.910;12.530;2022-07-01T06:21:45;19.00;1.00
1461;DHT22;724;49.910;12.530;2022-07-01T06:24:12;19.10;1.00
1461;DHT22;724;49.910;12.530;2022-07-01T06:26:40;19.20;1.00
1461;DHT22;724;49.910;12.530;2022-07-01T06:29:07;19.20;1.00
1461;DHT22;724;49.910;12.530;2022-07-01T06:31:34;19.10;99.90
1461;DHT22;724;49.910;12.530;2022-07-01T06:34:01;18.90;99.90
1461;DHT22;724;49.910;12.530;2022-07-01T06:36:28;19.00;99.90
1461;DHT22;724;49.910;12.530;2022-07-01T06:38:54;19.20;99.90
1461;DHT22;724;49.910;12.530;2022-07-01T06:41:21;19.40;99.90
1461;DHT22;724;49.910;12.530;2022-07-01T06:43:55;19.70;99.90
1461;DHT22;724;49.910;12.530;2022-07-01T06:46:23;19.70;99.90
1461;DHT22;724;49.910;12.530;2022-07-01T06:48:49;19.60;99.90
1461;DHT22;724;49.910;12.530;2022-07-01T06:51:16;20.00;99.90
1461;DHT22;724;49.910;12.530;2022-07-01T06:53:43;20.70;99.90
1461;DHT22;724;49.910;12.530;2022-07-01T06:56:12;21.20;99.90
1461;DHT22;724;49.910;12.530;2022-07-01T06:58:40;21.30;99.90
1461;DHT22;724;49.910;12.530;2022-07-01T07:01:08;20.70;99.90
1461;DHT22;724;49.910;12.530;2022-07-01T07:03:35;20.50;99.90
1461;DHT22;724;49.910;12.530;2022-07-01T07:06:02;20.40;99.90
1461;DHT22;724;49.910;12.530;2022-07-01T07:08:30;20.30;99.90
1461;DHT22;724;49.910;12.530;2022-07-01T07:10:58;20.10;99.90
1461;DHT22;724;49.910;12.530;2022-07-01T07:13:25;19.90;99.90
1461;DHT22;724;49.910;12.530;2022-07-01T07:15:51;19.60;99.90
1461;DHT22;724;49.910;12.530;2022-07-01T07:18:20;19.30;99.90
1461;DHT22;724;49.910;12.530;2022-07-01T07:20:46;19.20;99.90
1461;DHT22;724;49.910;12.530;2022-07-01T07:23:13;19.10;99.90
1461;DHT22;724;49.910;12.530;2022-07-01T07:25:40;19.00;99.90
1461;DHT22;724;49.910;12.530;2022-07-01T07:28:07;18.60;99.90
1461;DHT22;724;49.910;12.530;2022-07-01T07:30:34;18.60;99.90
1461;DHT22;724;49.910;12.530;2022-07-01T07:33:00;18.70;99.90
1461;DHT22;724;49.910;12.530;2022-07-01T07:35:31;18.50;99.90
1461;DHT22;724;49.910;12.530;2022-07-01T07:37:58;18.40;99.90
1461;DHT22;724;49.910;12.530;2022-07-01T07:40:24;18.60;99.90
1461;DHT22;724;49.910;12.530;2022-07-01T07:42:51;18.60;99.90
1461;DHT22;724;49.910;12.530;2022-07-01T07:45:18;18.30;99.90
1461;DHT22;724;49.910;12.530;2022-07-01T07:47:47;18.20;99.90
1461;DHT22;724;49.910;12.530;2022-07-01T07:50:15;18.20;99.90
1461;DHT22;724;49.910;12.530;2022-07-01T07:52:43;18.50;99.90
1461;DHT22;724;49.910;12.530;2022-07-01T07:55:10;18.80;99.90
1461;DHT22;724;49.910;12.530;2022-07-01T07:57:37;19.00;99.90
1461;DHT22;724;49.910;12.530;2022-07-01T08:00:05;19.80;99.90
1461;DHT22;724;49.910;12.530;2022-07-01T08:02:32;20.40;99.90
1461;DHT22;724;49.910;12.530;2022-07-01T08:04:59;20.70;99.90
1461;DHT22;724;49.910;12.530;2022-07-01T08:07:26;20.90;99.90
1461;DHT22;724;49.910;12.530;2022-07-01T08:09:55;20.40;99.90
1461;DHT22;724;49.910;12.530;2022-07-01T08:12:21;20.00;99.90
1461;DHT22;724;49.910;12.530;2022-07-01T08:14:51;20.10;99.90
1461;DHT22;724;49.910;12.530;2022-07-01T08:17:18;20.10;99.90
1461;DHT22;724;49.910;12.530;2022-07-01T08:19:45;20.00;99.90
1461;DHT22;724;49.910;12.530;2022-07-01T08:22:11;19.90;99.90
1461;DHT22;724;49.910;12.530;2022-07-01T08:24:38;19.90;99.90
1461;DHT22;724;49.910;12.530;2022-07-01T08:27:06;19.40;99.90
1461;DHT22;724;49.910;12.530;2022-07-01T08:29:33;19.40;99.90
1461;DHT22;724;49.910;12.530;2022-07-01T08:32:02;19.10;99.90
1461;DHT22;724;49.910;12.530;2022-07-01T08:34:28;18.90;99.90
1461;DHT22;724;49.910;12.530;2022-07-01T08:36:55;18.40;99.90
1461;DHT22;724;49.910;12.530;2022-07-01T08:39:22;18.10;99.90
1461;DHT22;724;49.910;12.530;2022-07-01T08:41:49;18.10;1.00
1461;DHT22;724;49.910;12.530;2022-07-01T08:44:17;18.00;1.00
1461;DHT22;724;49.910;12.530;2022-07-01T08:46:43;17.80;1.00
1461;DHT22;724;49.910;12.530;2022-07-01T08:49:12;17.70;1.00
1461;DHT22;724;49.910;12.530;2022-07-01T08:51:39;17.60;1.00
1461;DHT22;724;49.910;12.530;2022-07-01T08:54:06;17.60;1.00
1461;DHT22;724;49.910;12.530;2022-07-01T08:56:33;17.50;1.00
1461;DHT22;724;49.910;12.530;2022-07-01T08:59:11;17.50;1.00
1461;DHT22;724;49.910;12.530;2022-07-01T09:01:40;17.50;1.00
1461;DHT22;724;49.910;12.530;2022-07-01T09:04:14;17.20;1.00
1461;DHT22;724;49.910;12.530;2022-07-01T09:06:41;17.10;1.00
1461;DHT22;724;49.910;12.530;2022-07-01T09:09:11;17.20;1.00
1461;DHT22;724;49.910;12.530;2022-07-01T09:11:43;17.20;1.00
1461;DHT22;724;49.910;12.530;2022-07-01T09:14:11;17.10;1.00
1461;DHT22;724;49.910;12.530;2022-07-01T09:16:44;16.90;1.00
1461;DHT22;724;49.910;12.530;2022-07-01T09:19:12;17.10;1.00
1461;DHT22;724;49.910;12.530;2022-07-01T09:21:39;17.30;1.00
1461;DHT22;724;49.910;12.530;2022-07-01T09:24:23;17.40;1.00
1461;DHT22;724;49.910;12.530;2022-07-01T09:26:55;17.20;1.00
1461;DHT22;724;49.910;12.530;2022-07-01T09:29:27;17.30;1.00
1461;DHT22;724;49.910;12.530;2022-07-01T09:31:55;16.90;1.00
1461;DHT22;724;49.910;12.530;2022-07-01T09:34:22;16.90;1.00
1461;DHT22;724;49.910;12.530;2022-07-01T09:36:53;16.90;1.00
1461;DHT22;724;49.910;12.530;2022-07-01T09:39:20;16.80;1.00
1461;DHT22;724;49.910;12.530;2022-07-01T09:41:47;16.60;1.00
1461;DHT22;724;49.910;12.530;2022-07-01T09:44:14;16.80;1.00
1461;DHT22;724;49.910;12.530;2022-07-01T09:46:56;17.00;1.00
1461;DHT22;724;49.910;12.530;2022-07-01T09:49:24;17.30;1.00
1461;DHT22;724;49.910;12.530;2022-07-01T09:51:51;17.00;1.00
1461;DHT22;724;49.910;12.530;2022-07-01T09:54:18;17.40;1.00
1461;DHT22;724;49.910;12.530;2022-07-01T09:56:45;17.90;1.00
1461;DHT22;724;49.910;12.530;2022-07-01T09:59:12;18.40;1.00
1461;DHT22;724;49.910;12.530;2022-07-01T10:01:39;18.40;1.00
1461;DHT22;724;49.910;12.530;2022-07-01T10:04:09;18.00;1.00
1461;DHT22;724;49.910;12.530;2022-07-01T10:07:09;17.60;1.00
1461;DHT22;724;49.910;12.530;2022-07-01T10:10:02;17.90;1.00
1461;DHT22;724;49.910;12.530;2022-07-01T10:12:38;18.00;1.00
1461;DHT22;724;49.910;12.530;2022-07-01T10:15:08;17.40;1.00
1461;DHT22;724;49.910;12.530;2022-07-01T10:17:36;17.30;1.00
1461;DHT22;724;49.910;12.530;2022-07-01T10:20:10;17.10;1.00
1461;DHT22;724;49.910;12.530;2022-07-01T10:22:38;16.70;1.00
1461;DHT22;724;49.910;12.530;2022-07-01T10:25:34;16.50;1.00
1461;DHT22;724;49.910;12.530;2022-07-01T10:28:21;16.50;1.00
1461;DHT22;724;49.910;12.530;2022-07-01T10:30:54;16.50;1.00
1461;DHT22;724;49.910;12.530;2022-07-01T10:33:28;16.10;1.00
1461;DHT22;724;49.910;12.530;2022-07-01T10:36:04;15.80;1.00
1461;DHT22;724;49.910;12.530;2022-07-01T10:38:30;16.10;1.00
1461;DHT22;724;49.910;12.530;2022-07-01T10:40:57;15.90;1.00
1461;DHT22;724;49.910;12.530;2022-07-01T10:43:36;15.90;1.00
1461;DHT22;724;49.910;12.530;2022-07-01T10:46:05;15.80;1.00
1461;DHT22;724;49.910;12.530;2022-07-01T10:48:33;15.80;1.00
1461;DHT22;724;49.910;12.530;2022-07-01T10:51:01;15.90;1.00
1461;DHT22;724;49.910;12.530;2022-07-01T10:53:45;16.00;1.00
1461;DHT22;724;49.910;12.530;2022-07-01T10:56:15;15.90;1.00
1461;DHT22;724;49.910;12.530;2022-07-01T10:58:42;16.00;1.00
1461;DHT22;724;49.910;12.530;2022-07-01T11:01:09;16.20;1.00
1461;DHT22;724;49.910;12.530;2022-07-01T11:03:38;16.30;1.00
1461;DHT22;724;49.910;12.530;2022-07-01T11:06:06;16.40;1.00
1461;DHT22;724;49.910;12.530;2022-07-01T11:08:33;16.40;1.00
1461;DHT22;724;49.910;12.530;2022-07-01T11:11:01;16.00;1.00
1461;DHT22;724;49.910;12.530;2022-07-01T11:13:30;16.10;1.00
1461;DHT22;724;49.910;12.530;2022-07-01T11:15:59;16.70;1.00
1461;DHT22;724;49.910;12.530;2022-07-01T11:18:26;17.10;1.00
1461;DHT22;724;49.910;12.530;2022-07-01T11:21:03;17.70;1.00
1461;DHT22;724;49.910;12.530;2022-07-01T11:23:31;17.60;1.00
1461;DHT22;724;49.910;12.530;2022-07-01T11:25:58;17.30;1.00
1461;DHT22;724;49.910;12.530;2022-07-01T11:28:25;17.30;1.00
1461;DHT22;724;49.910;12.530;2022-07-01T11:30:58;17.20;1.00
1461;DHT22;724;49.910;12.530;2022-07-01T11:33:26;17.10;1.00
1461;DHT22;724;49.910;12.530;2022-07-01T11:35:53;16.90;1.00
1461;DHT22;724;49.910;12.530;2022-07-01T11:38:38;17.10;1.00
1461;DHT22;724;49.910;12.530;2022-07-01T11:41:24;16.70;1.00
1461;DHT22;724;49.910;12.530;2022-07-01T11:43:52;16.70;1.00
1461;DHT22;724;49.910;12.530;2022-07-01T11:46:20;16.50;1.00
1461;DHT22;724;49.910;12.530;2022-07-01T11:48:48;16.50;1.00
1461;DHT22;724;49.910;12.530;2022-07-01T11:51:17;16.10;1.00
1461;DHT22;724;49.910;12.530;2022-07-01T11:53:47;16.20;1.00
1461;DHT22;724;49.910;12.530;2022-07-01T11:56:15;15.80;1.00
1461;DHT22;724;49.910;12.530;2022-07-01T11:58:52;15.50;1.00
1461;DHT22;724;49.910;12.530;2022-07-01T12:01:24;15.40;1.00
1461;DHT22;724;49.910;12.530;2022-07-01T12:03:53;15.30;1.00
1461;DHT22;724;49.910;12.530;2022-07-01T12:06:20;15.20;1.00
1461;DHT22;724;49.910;12.530;2022-07-01T12:08:50;15.10;1.00
1461;DHT22;724;49.910;12.530;2022-07-01T12:11:18;15.00;1.00
1461;DHT22;724;49.910;12.530;2022-07-01T12:13:46;14.90;1.00
1461;DHT22;724;49.910;12.530;2022-07-01T12:16:13;15.20;1.00
1461;DHT22;724;49.910;12.530;2022-07-01T12:18:51;15.10;1.00
1461;DHT22;724;49.910;12.530;2022-07-01T12:21:18;15.60;1.00
1461;DHT22;724;49.910;12.530;2022-07-01T12:24:05;15.80;1.00
1461;DHT22;724;49.910;12.530;2022-07-01T12:26:33;15.80;1.00
1461;DHT22;724;49.910;12.530;2022-07-01T12:29:00;15.80;1.00
1461;DHT22;724;49.910;12.530;2022-07-01T12:31:26;15.80;1.00
1461;DHT22;724;49.910;12.530;2022-07-01T12:33:53;15.70;1.00
1461;DHT22;724;49.910;12.530;2022-07-01T12:36:20;16.10;1.00
1461;DHT22;724;49.910;12.530;2022-07-01T12:39:00;16.40;1.00
1461;DHT22;724;49.910;12.530;2022-07-01T12:41:30;15.90;1.00
1461;DHT22;724;49.910;12.530;2022-07-01T12:43:58;15.70;1.00
1461;DHT22;724;49.910;12.530;2022-07-01T12:46:29;15.60;1.00
1461;DHT22;724;49.910;12.530;2022-07-01T12:48:56;15.50;1.00
1461;DHT22;724;49.910;12.530;2022-07-01T12:51:30;15.70;1.00
1461;DHT22;724;49.910;12.530;2022-07-01T12:53:57;15.80;1.00
1461;DHT22;724;49.910;12.530;2022-07-01T12:56:26;15.70;1.00
1461;DHT22;724;49.910;12.530;2022-07-01T12:58:55;15.70;1.00
1461;DHT22;724;49.910;12.530;2022-07-01T13:01:23;15.60;1.00
1461;DHT22;724;49.910;12.530;2022-07-01T13:03:49;15.90;1.00
1461;DHT22;724;49.910;12.530;2022-07-01T13:06:16;16.10;1.00
1461;DHT22;724;49.910;12.530;2022-07-01T13:08:43;16.50;1.00
1461;DHT22;724;49.910;12.530;2022-07-01T13:11:10;16.60;1.00
1461;DHT22;724;49.910;12.530;2022-07-01T13:13:36;16.50;99.90
1461;DHT22;724;49.910;12.530;2022-07-01T13:16:05;16.60;99.90
1461;DHT22;724;49.910;12.530;2022-07-01T13:18:32;16.70;99.90
1461;DHT22;724;49.910;12.530;2022-07-01T13:20:59;16.70;99.90
1461;DHT22;724;49.910;12.530;2022-07-01T13:23:26;16.80;99.90
1461;DHT22;724;49.910;12.530;2022-07-01T13:25:53;16.80;99.90
1461;DHT22;724;49.910;12.530;2022-07-01T13:28:19;16.70;99.90
1461;DHT22;724;49.910;12.530;2022-07-01T13:30:46;17.00;99.90
1461;DHT22;724;49.910;12.530;2022-07-01T13:33:14;16.70;99.90
1461;DHT22;724;49.910;12.530;2022-07-01T13:35:41;17.00;99.90
1461;DHT22;724;49.910;12.530;2022-07-01T13:38:08;16.70;99.90
1461;DHT22;724;49.910;12.530;2022-07-01T13:40:35;16.60;99.90
1461;DHT22;724;49.910;12.530;2022-07-01T13:43:02;16.70;99.90
1461;DHT22;724;49.910;12.530;2022-07-01T13:45:47;16.30;99.90
1461;DHT22;724;49.910;12.530;2022-07-01T13:48:15;16.00;99.90
1461;DHT22;724;49.910;12.530;2022-07-01T13:50:42;15.60;99.90
1461;DHT22;724;49.910;12.530;2022-07-01T13:53:08;15.60;99.90
1461;DHT22;724;49.910;12.530;2022-07-01T13:55:35;15.60;99.90
1461;DHT22;724;49.910;12.530;2022-07-01T13:58:02;15.30;99.90
1461;DHT22;724;49.910;12.530;2022-07-01T14:00:29;15.10;1.00
1461;DHT22;724;49.910;12.530;2022-07-01T14:02:55;15.10;1.00
1461;DHT22;724;49.910;12.530;2022-07-01T14:05:23;15.20;1.00
1461;DHT22;724;49.910;12.530;2022-07-01T14:07:50;15.10;1.00
1461;DHT22;724;49.910;12.530;2022-07-01T14:10:17;15.00;1.00
1461;DHT22;724;49.910;12.530;2022-07-01T14:12:44;14.90;1.00
1461;DHT22;724;49.910;12.530;2022-07-01T14:15:11;14.70;1.00
1461;DHT22;724;49.910;12.530;2022-07-01T14:17:37;14.60;1.00
1461;DHT22;724;49.910;12.530;2022-07-01T14:20:06;14.50;1.00
1461;DHT22;724;49.910;12.530;2022-07-01T14:22:36;14.40;1.00
1461;DHT22;724;49.910;12.530;2022-07-01T14:25:03;14.30;1.00
1461;DHT22;724;49.910;12.530;2022-07-01T14:27:30;14.50;1.00
1461;DHT22;724;49.910;12.530;2022-07-01T14:29:57;14.40;1.00
1461;DHT22;724;49.910;12.530;2022-07-01T14:32:24;14.30;1.00
1461;DHT22;724;49.910;12.530;2022-07-01T14:34:53;14.30;1.00
1461;DHT22;724;49.910;12.530;2022-07-01T14:37:20;14.30;1.00
1461;DHT22;724;49.910;12.530;2022-07-01T14:39:48;14.30;1.00
1461;DHT22;724;49.910;12.530;2022-07-01T14:42:18;14.40;1.00
1461;DHT22;724;49.910;12.530;2022-07-01T14:44:45;14.30;1.00
1461;DHT22;724;49.910;12.530;2022-07-01T14:47:12;14.30;1.00
1461;DHT22;724;49.910;12.530;2022-07-01T14:49:38;14.30;1.00
1461;DHT22;724;49.910;12.530;2022-07-01T14:52:06;14.20;1.00
1461;DHT22;724;49.910;12.530;2022-07-01T14:54:33;14.30;1.00
1461;DHT22;724;49.910;12.530;2022-07-01T14:57:01;14.20;1.00
1461;DHT22;724;49.910;12.530;2022-07-01T14:59:27;14.30;1.00
1461;DHT22;724;49.910;12.530;2022-07-01T15:01:54;14.30;1.00
1461;DHT22;724;49.910;12.530;2022-07-01T15:04:25;14.40;1.00
1461;DHT22;724;49.910;12.530;2022-07-01T15:06:52;14.40;1.00
1461;DHT22;724;49.910;12.530;2022-07-01T15:09:19;14.20;1.00
1461;DHT22;724;49.910;12.530;2022-07-01T15:11:47;14.00;1.00
1461;DHT22;724;49.910;12.530;2022-07-01T15:14:15;14.00;1.00
1461;DHT22;724;49.910;12.530;2022-07-01T15:16:42;14.00;1.00
1461;DHT22;724;49.910;12.530;2022-07-01T15:19:09;13.90;1.00
1461;DHT22;724;49.910;12.530;2022-07-01T15:21:36;13.90;1.00
1461;DHT22;724;49.910;12.530;2022-07-01T15:24:03;13.80;1.00
1461;DHT22;724;49.910;12.530;2022-07-01T15:26:30;13.70;1.00
1461;DHT22;724;49.910;12.530;2022-07-01T15:28:57;13.90;1.00
1461;DHT22;724;49.910;12.530;2022-07-01T15:31:25;13.80;1.00
1461;DHT22;724;49.910;12.530;2022-07-01T15:33:53;13.80;1.00
1461;DHT22;724;49.910;12.530;2022-07-01T15:36:20;14.10;1.00
1461;DHT22;724;49.910;12.530;2022-07-01T15:38:47;14.00;1.00
1461;DHT22;724;49.910;12.530;2022-07-01T15:41:15;14.10;1.00
1461;DHT22;724;49.910;12.530;2022-07-01T15:43:43;14.00;1.00
1461;DHT22;724;49.910;12.530;2022-07-01T15:46:10;14.10;1.00
1461;DHT22;724;49.910;12.530;2022-07-01T15:48:39;14.20;1.00
1461;DHT22;724;49.910;12.530;2022-07-01T15:51:05;14.20;1.00
1461;DHT22;724;49.910;12.530;2022-07-01T15:53:32;14.20;1.00
1461;DHT22;724;49.910;12.530;2022-07-01T15:55:59;14.20;1.00
1461;DHT22;724;49.910;12.530;2022-07-01T15:58:26;14.30;1.00
1461;DHT22;724;49.910;12.530;2022-07-01T16:00:54;14.20;1.00
1461;DHT22;724;49.910;12.530;2022-07-01T16:03:21;14.20;1.00
1461;DHT22;724;49.910;12.530;2022-07-01T16:05:51;14.10;1.00
1461;DHT22;724;49.910;12.530;2022-07-01T16:08:24;13.80;1.00
1461;DHT22;724;49.910;12.530;2022-07-01T16:10:59;13.80;1.00
1461;DHT22;724;49.910;12.530;2022-07-01T16:13:28;13.70;1.00
1461;DHT22;724;49.910;12.530;2022-07-01T16:15:56;13.60;1.00
1461;DHT22;724;49.910;12.530;2022-07-01T16:18:24;13.50;93.10
1461;DHT22;724;49.910;12.530;2022-07-01T16:20:56;13.60;99.90